createdAt,value
2018-09-30T00:00:52.705Z,5.70
2018-09-30T00:03:21.701Z,5.60
2018-09-30T00:05:50.633Z,5.60
2018-09-30T00:08:20.651Z,5.60
2018-09-30T00:10:49.672Z,5.50
2018-09-30T00:13:18.709Z,5.50
2018-09-30T00:15:47.741Z,5.50
2018-09-30T00:18:16.768Z,5.50
2018-09-30T00:20:45.848Z,5.50
2018-09-30T00:23:14.854Z,5.50
2018-09-30T00:25:49.171Z,5.40
2018-09-30T00:28:18.214Z,5.40
2018-09-30T00:30:47.255Z,5.30
2018-09-30T00:33:17.138Z,5.30
2018-09-30T00:35:46.048Z,5.30
2018-09-30T00:38:14.994Z,5.40
2018-09-30T00:40:43.951Z,5.40
2018-09-30T00:43:12.962Z,5.30
2018-09-30T00:45:41.970Z,5.30
2018-09-30T00:48:10.925Z,5.20
2018-09-30T00:50:39.901Z,5.20
2018-09-30T00:53:09.015Z,5.10
2018-09-30T00:55:37.994Z,5.10
2018-09-30T00:58:06.932Z,5.00
2018-09-30T01:00:35.871Z,4.90
2018-09-30T01:03:04.846Z,4.80
2018-09-30T01:05:33.784Z,4.80
2018-09-30T01:08:02.758Z,4.80
2018-09-30T01:10:31.701Z,4.80
2018-09-30T01:13:00.641Z,4.80
2018-09-30T01:15:29.590Z,4.80
2018-09-30T01:17:58.576Z,4.80
2018-09-30T01:20:27.643Z,4.80
2018-09-30T01:22:56.613Z,4.80
2018-09-30T01:25:25.695Z,4.80
2018-09-30T01:27:54.842Z,4.80
2018-09-30T01:30:23.850Z,4.70
2018-09-30T01:32:52.970Z,4.80
2018-09-30T01:35:22.038Z,4.70
2018-09-30T01:37:51.053Z,4.70
2018-09-30T01:40:20.130Z,4.70
2018-09-30T01:42:49.481Z,4.70
2018-09-30T01:45:18.538Z,4.60
2018-09-30T01:47:47.555Z,4.60
2018-09-30T01:50:16.700Z,4.60
2018-09-30T01:52:52.709Z,4.60
2018-09-30T01:55:21.805Z,4.50
2018-09-30T01:57:50.906Z,4.50
2018-09-30T02:00:20.350Z,4.50
2018-09-30T02:02:49.573Z,4.50
2018-09-30T02:05:18.673Z,4.60
2018-09-30T02:07:48.724Z,4.60
2018-09-30T02:10:18.187Z,4.50
2018-09-30T02:12:47.235Z,4.50
2018-09-30T02:15:19.599Z,4.40
2018-09-30T02:17:48.622Z,4.40
2018-09-30T02:20:17.579Z,4.40
2018-09-30T02:22:46.628Z,4.40
2018-09-30T02:25:15.773Z,4.40
2018-09-30T02:27:44.889Z,4.40
2018-09-30T02:30:14.021Z,4.40
2018-09-30T02:32:43.037Z,4.30
2018-09-30T02:35:12.012Z,4.20
2018-09-30T02:37:41.093Z,4.20
2018-09-30T02:40:10.205Z,4.10
2018-09-30T02:42:39.256Z,4.10
2018-09-30T02:45:08.356Z,4.10
2018-09-30T02:47:37.381Z,4.10
2018-09-30T02:50:06.377Z,4.10
2018-09-30T02:52:35.401Z,4.10
2018-09-30T02:55:04.540Z,4.10
2018-09-30T02:57:33.498Z,4.10
2018-09-30T03:00:02.487Z,4.10
2018-09-30T03:02:31.453Z,4.10
2018-09-30T03:05:00.436Z,4.10
2018-09-30T03:07:34.617Z,4.00
2018-09-30T03:10:03.702Z,4.10
2018-09-30T03:12:32.653Z,4.10
2018-09-30T03:15:01.801Z,4.00
2018-09-30T03:17:30.931Z,4.10
2018-09-30T03:20:00.051Z,4.10
2018-09-30T03:22:29.140Z,4.00
2018-09-30T03:24:58.117Z,4.00
2018-09-30T03:27:27.195Z,4.00
2018-09-30T03:29:56.406Z,4.00
2018-09-30T03:32:25.414Z,3.90
2018-09-30T03:34:54.400Z,3.90
2018-09-30T03:37:23.477Z,3.90
2018-09-30T03:39:52.465Z,3.80
2018-09-30T03:42:21.497Z,3.80
2018-09-30T03:44:50.492Z,3.80
2018-09-30T03:47:20.699Z,3.80
2018-09-30T03:49:49.764Z,3.80
2018-09-30T03:52:19.035Z,3.70
2018-09-30T03:54:48.177Z,3.70
2018-09-30T03:57:17.271Z,3.70
2018-09-30T03:59:46.383Z,3.70
2018-09-30T04:02:15.561Z,3.70
2018-09-30T04:04:44.654Z,3.70
2018-09-30T04:07:13.754Z,3.60
2018-09-30T04:09:42.922Z,3.60
2018-09-30T04:12:11.912Z,3.60
2018-09-30T04:14:40.938Z,3.60
2018-09-30T04:17:10.166Z,3.50
2018-09-30T04:19:39.158Z,3.50
2018-09-30T04:22:08.253Z,3.40
2018-09-30T04:24:37.297Z,3.40
2018-09-30T04:27:06.284Z,3.40
2018-09-30T04:29:35.257Z,3.40
2018-09-30T04:32:04.270Z,3.40
2018-09-30T04:34:33.312Z,3.40
2018-09-30T04:37:02.321Z,3.30
2018-09-30T04:39:31.362Z,3.20
2018-09-30T04:42:00.360Z,3.20
2018-09-30T04:44:29.378Z,3.20
2018-09-30T04:46:58.448Z,3.20
2018-09-30T04:49:27.386Z,3.20
2018-09-30T04:51:56.325Z,3.20
2018-09-30T04:54:25.293Z,3.20
2018-09-30T04:56:54.194Z,3.20
2018-09-30T04:59:23.184Z,3.30
2018-09-30T05:01:52.149Z,3.20
2018-09-30T05:04:21.118Z,3.20
2018-09-30T05:06:50.083Z,3.20
2018-09-30T05:09:18.937Z,3.10
2018-09-30T05:11:47.823Z,3.10
2018-09-30T05:14:16.656Z,3.20
2018-09-30T05:16:45.578Z,3.20
2018-09-30T05:19:14.502Z,3.20
2018-09-30T05:21:43.448Z,3.30
2018-09-30T05:24:12.434Z,3.30
2018-09-30T05:26:41.292Z,3.40
2018-09-30T05:29:10.160Z,3.40
2018-09-30T05:31:39.088Z,3.40
2018-09-30T05:34:08.149Z,3.50
2018-09-30T05:36:37.007Z,3.50
2018-09-30T05:39:08.179Z,3.50
2018-09-30T05:41:37.248Z,3.70
2018-09-30T05:44:06.526Z,3.80
2018-09-30T05:46:35.650Z,3.90
2018-09-30T05:49:04.657Z,5.80
2018-09-30T05:51:33.749Z,6.00
2018-09-30T05:54:02.688Z,5.90
2018-09-30T05:56:31.608Z,5.80
2018-09-30T05:59:00.549Z,5.60
2018-09-30T06:01:29.645Z,5.50
2018-09-30T06:03:58.674Z,5.30
2018-09-30T06:06:28.609Z,5.20
2018-09-30T06:08:57.562Z,5.10
2018-09-30T06:11:26.458Z,5.10
2018-09-30T06:13:55.390Z,5.00
2018-09-30T06:16:24.413Z,5.00
2018-09-30T06:18:53.435Z,5.00
2018-09-30T06:21:22.616Z,5.10
2018-09-30T06:23:51.680Z,5.10
2018-09-30T06:26:20.729Z,5.10
2018-09-30T06:28:49.758Z,5.10
2018-09-30T06:31:18.689Z,5.20
2018-09-30T06:36:24.371Z,5.30
2018-09-30T06:38:53.400Z,5.60
2018-09-30T06:41:22.377Z,5.70
2018-09-30T06:43:51.304Z,5.80
2018-09-30T06:46:20.552Z,6.00
2018-09-30T06:48:49.544Z,6.00
2018-09-30T06:51:18.441Z,6.10
2018-09-30T06:53:47.426Z,6.10
2018-09-30T06:56:16.479Z,6.30
2018-09-30T06:58:45.478Z,6.30
2018-09-30T07:01:14.580Z,6.50
2018-09-30T07:03:43.548Z,6.60
2018-09-30T07:06:12.516Z,6.80
2018-09-30T07:08:41.458Z,6.90
2018-09-30T07:11:10.387Z,6.90
2018-09-30T07:13:39.359Z,6.90
2018-09-30T07:16:08.331Z,6.90
2018-09-30T07:18:37.314Z,7.10
2018-09-30T07:21:06.218Z,7.20
2018-09-30T07:23:35.102Z,7.30
2018-09-30T07:26:04.026Z,7.40
2018-09-30T07:28:32.876Z,7.40
2018-09-30T07:31:01.805Z,7.60
2018-09-30T07:33:30.809Z,7.70
2018-09-30T07:35:59.803Z,7.70
2018-09-30T07:38:28.731Z,7.80
2018-09-30T07:40:57.605Z,7.90
2018-09-30T07:43:26.432Z,7.90
2018-09-30T07:45:55.284Z,8.10
2018-09-30T07:48:24.193Z,8.30
2018-09-30T07:50:53.081Z,8.40
2018-09-30T07:53:22.056Z,8.50
2018-09-30T07:55:50.957Z,8.60
2018-09-30T07:58:19.876Z,8.70
2018-09-30T08:00:48.772Z,8.90
2018-09-30T08:03:17.617Z,9.00
2018-09-30T08:05:46.519Z,9.20
2018-09-30T08:08:15.928Z,9.30
2018-09-30T08:10:44.810Z,9.40
2018-09-30T08:13:13.676Z,9.60
2018-09-30T08:15:42.602Z,9.70
2018-09-30T08:18:11.502Z,9.90
2018-09-30T08:20:40.414Z,10.00
2018-09-30T08:23:09.389Z,10.10
2018-09-30T08:25:38.909Z,10.30
2018-09-30T08:28:07.998Z,10.40
2018-09-30T08:30:36.961Z,10.50
2018-09-30T08:33:06.030Z,10.70
2018-09-30T08:35:35.172Z,10.80
2018-09-30T08:38:09.121Z,11.00
2018-09-30T08:40:43.336Z,11.10
2018-09-30T08:43:12.822Z,11.20
2018-09-30T08:45:41.803Z,11.40
2018-09-30T08:48:11.376Z,11.50
2018-09-30T08:50:40.846Z,11.60
2018-09-30T08:53:09.916Z,11.70
2018-09-30T08:55:38.866Z,11.80
2018-09-30T08:58:08.772Z,11.90
2018-09-30T09:00:37.662Z,12.00
2018-09-30T09:03:06.679Z,12.10
2018-09-30T09:05:35.521Z,12.30
2018-09-30T09:08:04.563Z,12.40
2018-09-30T09:10:34.696Z,12.50
2018-09-30T09:13:03.644Z,12.60
2018-09-30T09:15:32.649Z,12.60
2018-09-30T09:18:01.577Z,12.70
2018-09-30T09:20:31.213Z,12.80
2018-09-30T09:23:00.143Z,12.90
2018-09-30T09:25:29.136Z,13.00
2018-09-30T09:27:58.151Z,13.00
2018-09-30T09:30:27.010Z,13.20
2018-09-30T09:32:55.996Z,13.30
2018-09-30T09:35:24.846Z,13.40
2018-09-30T09:37:53.880Z,13.50
2018-09-30T09:40:24.748Z,13.60
2018-09-30T09:42:53.645Z,13.60
2018-09-30T09:45:22.888Z,13.70
2018-09-30T09:47:51.856Z,13.90
2018-09-30T09:50:20.789Z,14.10
2018-09-30T09:52:49.904Z,14.30
2018-09-30T09:55:18.830Z,14.30
2018-09-30T09:57:47.765Z,14.40
2018-09-30T10:00:21.916Z,14.50
2018-09-30T10:02:50.761Z,14.80
2018-09-30T10:05:19.713Z,15.00
2018-09-30T10:07:48.576Z,15.10
2018-09-30T10:10:17.432Z,15.30
2018-09-30T10:12:46.584Z,15.40
2018-09-30T10:15:15.412Z,15.50
2018-09-30T10:17:44.287Z,15.70
2018-09-30T10:20:13.131Z,15.80
2018-09-30T10:22:42.005Z,16.10
2018-09-30T10:25:10.898Z,16.30
2018-09-30T10:27:39.813Z,16.40
2018-09-30T10:30:08.735Z,16.60
2018-09-30T10:32:38.543Z,16.70
2018-09-30T10:35:07.456Z,16.90
2018-09-30T10:37:36.313Z,17.10
2018-09-30T10:40:05.224Z,17.20
2018-09-30T10:42:34.089Z,17.40
2018-09-30T10:45:07.268Z,17.30
2018-09-30T10:47:36.541Z,17.40
2018-09-30T10:50:09.254Z,17.60
2018-09-30T10:52:38.423Z,17.70
2018-09-30T10:55:12.491Z,17.80
2018-09-30T10:57:41.389Z,18.00
2018-09-30T11:00:10.347Z,18.30
2018-09-30T11:02:39.312Z,18.40
2018-09-30T11:05:08.263Z,18.50
2018-09-30T11:07:37.207Z,18.50
2018-09-30T11:10:06.611Z,18.50
2018-09-30T11:12:35.597Z,18.80
2018-09-30T11:15:04.658Z,18.90
2018-09-30T11:17:33.876Z,19.00
2018-09-30T11:20:03.033Z,19.10
2018-09-30T11:22:32.401Z,19.20
2018-09-30T11:25:02.089Z,19.30
2018-09-30T11:27:31.092Z,19.40
2018-09-30T11:30:00.016Z,19.50
2018-09-30T11:32:28.944Z,19.60
2018-09-30T11:34:57.938Z,19.70
2018-09-30T11:37:26.958Z,19.90
2018-09-30T11:39:55.920Z,19.90
2018-09-30T11:42:24.836Z,19.90
2018-09-30T11:44:53.828Z,20.20
2018-09-30T11:47:22.821Z,20.50
2018-09-30T11:49:52.329Z,20.50
2018-09-30T11:52:21.192Z,20.30
2018-09-30T11:54:50.061Z,20.20
2018-09-30T11:57:18.924Z,20.20
2018-09-30T11:59:47.753Z,20.10
2018-09-30T12:02:16.991Z,20.20
2018-09-30T12:04:45.861Z,20.40
2018-09-30T12:07:14.972Z,20.40
2018-09-30T12:09:43.808Z,20.50
2018-09-30T12:12:12.816Z,20.50
2018-09-30T12:14:41.674Z,20.70
2018-09-30T12:17:10.527Z,20.60
2018-09-30T12:19:39.396Z,20.60
2018-09-30T12:22:08.241Z,20.80
2018-09-30T12:24:37.213Z,21.00
2018-09-30T12:27:06.124Z,21.20
2018-09-30T12:29:34.960Z,21.10
2018-09-30T12:32:03.832Z,20.90
2018-09-30T12:34:32.704Z,20.90
2018-09-30T12:37:01.560Z,21.00
2018-09-30T12:39:30.483Z,21.30
2018-09-30T12:41:59.366Z,21.60
2018-09-30T12:44:28.296Z,21.80
2018-09-30T12:46:57.135Z,21.80
2018-09-30T12:49:26.030Z,21.80
2018-09-30T12:51:55.268Z,21.90
2018-09-30T12:54:24.113Z,22.00
2018-09-30T12:56:52.939Z,22.10
2018-09-30T12:59:21.780Z,22.10
2018-09-30T13:01:50.599Z,22.00
2018-09-30T13:04:19.453Z,21.90
2018-09-30T13:06:48.366Z,22.10
2018-09-30T13:09:17.258Z,22.20
2018-09-30T13:11:46.084Z,22.20
2018-09-30T13:14:14.916Z,22.30
2018-09-30T13:16:43.788Z,22.30
2018-09-30T13:19:12.604Z,22.40
2018-09-30T13:21:41.509Z,22.50
2018-09-30T13:24:10.348Z,22.90
2018-09-30T13:26:39.208Z,23.40
2018-09-30T13:29:08.054Z,23.80
2018-09-30T13:31:36.880Z,24.30
2018-09-30T13:34:05.961Z,24.50
2018-09-30T13:36:34.868Z,25.00
2018-09-30T13:39:05.125Z,25.70
2018-09-30T13:41:33.984Z,26.30
2018-09-30T13:44:02.891Z,26.90
2018-09-30T13:46:32.289Z,27.50
2018-09-30T13:49:01.204Z,27.30
2018-09-30T13:51:30.292Z,27.90
2018-09-30T13:53:59.272Z,28.50
2018-09-30T13:56:28.394Z,28.60
2018-09-30T13:58:57.321Z,29.50
2018-09-30T14:01:26.228Z,29.70
2018-09-30T14:03:55.156Z,29.90
2018-09-30T14:06:24.112Z,30.30
2018-09-30T14:08:53.263Z,30.10
2018-09-30T14:11:22.112Z,30.40
2018-09-30T14:13:50.984Z,30.80
2018-09-30T14:16:19.936Z,30.80
2018-09-30T14:18:48.768Z,30.50
2018-09-30T14:21:17.634Z,31.00
2018-09-30T14:23:46.489Z,31.20
2018-09-30T14:26:15.813Z,31.40
2018-09-30T14:28:44.722Z,31.20
2018-09-30T14:31:13.624Z,31.30
2018-09-30T14:33:42.588Z,31.50
2018-09-30T14:36:11.464Z,31.30
2018-09-30T14:38:40.376Z,31.50
2018-09-30T14:41:09.217Z,31.50
2018-09-30T14:43:52.788Z,31.70
2018-09-30T14:46:21.605Z,31.50
2018-09-30T14:48:50.432Z,31.40
2018-09-30T14:51:19.263Z,31.50
2018-09-30T14:53:48.090Z,31.80
2018-09-30T14:56:16.945Z,31.70
2018-09-30T14:58:45.784Z,31.80
2018-09-30T15:01:14.696Z,31.70
2018-09-30T15:03:43.633Z,31.50
2018-09-30T15:06:12.549Z,31.70
2018-09-30T15:08:41.352Z,31.40
2018-09-30T15:11:10.303Z,31.50
2018-09-30T15:13:39.217Z,30.80
2018-09-30T15:16:08.155Z,30.90
2018-09-30T15:18:37.098Z,30.10
2018-09-30T15:21:06.080Z,28.00
2018-09-30T15:23:34.980Z,26.00
2018-09-30T15:26:03.846Z,24.60
2018-09-30T15:28:32.676Z,25.20
2018-09-30T15:31:01.608Z,26.60
2018-09-30T15:33:30.522Z,27.80
2018-09-30T15:35:59.392Z,28.40
2018-09-30T15:38:28.220Z,28.40
2018-09-30T15:40:57.120Z,26.30
2018-09-30T15:43:26.039Z,24.00
2018-09-30T15:45:55.040Z,22.10
2018-09-30T15:48:23.978Z,20.80
2018-09-30T15:50:52.894Z,19.60
2018-09-30T15:53:21.928Z,18.90
2018-09-30T15:55:50.756Z,18.50
2018-09-30T15:58:19.588Z,17.90
2018-09-30T16:00:48.500Z,17.60
2018-09-30T16:03:17.582Z,17.50
2018-09-30T16:05:46.538Z,17.30
2018-09-30T16:08:15.407Z,17.20
2018-09-30T16:10:44.420Z,17.00
2018-09-30T16:13:13.405Z,16.90
2018-09-30T16:15:42.276Z,16.80
2018-09-30T16:18:11.191Z,16.60
2018-09-30T16:20:40.128Z,16.50
2018-09-30T16:23:09.072Z,16.30
2018-09-30T16:25:37.991Z,16.20
2018-09-30T16:28:07.079Z,16.00
2018-09-30T16:30:35.831Z,15.90
2018-09-30T16:33:04.693Z,15.70
2018-09-30T16:35:33.601Z,15.50
2018-09-30T16:38:02.496Z,15.20
2018-09-30T16:40:31.360Z,15.10
2018-09-30T16:43:00.192Z,14.80
2018-09-30T16:45:29.036Z,14.70
2018-09-30T16:47:57.909Z,14.60
2018-09-30T16:50:26.797Z,14.50
2018-09-30T16:52:55.706Z,14.50
2018-09-30T16:55:24.576Z,14.40
2018-09-30T16:57:53.441Z,14.30
2018-09-30T17:00:22.288Z,14.10
2018-09-30T17:02:51.247Z,14.00
2018-09-30T17:05:20.134Z,13.90
2018-09-30T17:07:49.008Z,13.80
2018-09-30T17:10:18.000Z,13.70
2018-09-30T17:12:46.942Z,13.60
2018-09-30T17:17:47.102Z,13.30
2018-09-30T17:20:16.377Z,13.20
2018-09-30T17:22:45.509Z,13.20
2018-09-30T17:25:15.526Z,13.10
2018-09-30T17:27:45.020Z,12.90
2018-09-30T17:30:19.690Z,12.90
2018-09-30T17:32:50.253Z,12.90
2018-09-30T17:35:19.503Z,12.90
2018-09-30T17:37:50.281Z,12.70
2018-09-30T17:40:20.338Z,12.70
2018-09-30T17:42:49.777Z,12.70
2018-09-30T17:45:19.064Z,12.60
2018-09-30T17:47:48.128Z,12.50
2018-09-30T17:50:30.252Z,12.40
2018-09-30T17:53:13.318Z,12.30
2018-09-30T17:55:43.960Z,12.20
2018-09-30T17:58:12.980Z,12.10
2018-09-30T18:00:41.996Z,12.00
2018-09-30T18:03:11.173Z,12.00
2018-09-30T18:05:40.237Z,11.90
2018-09-30T18:08:09.267Z,11.90
2018-09-30T18:10:38.635Z,11.90
2018-09-30T18:13:07.758Z,11.80
2018-09-30T18:15:37.087Z,11.80
2018-09-30T18:18:06.129Z,11.70
2018-09-30T18:20:35.216Z,11.60
2018-09-30T18:23:05.232Z,11.50
2018-09-30T18:25:34.279Z,11.30
2018-09-30T18:28:03.392Z,11.20
2018-09-30T18:30:33.321Z,11.20
2018-09-30T18:33:02.400Z,11.10
2018-09-30T18:35:32.375Z,11.00
2018-09-30T18:38:01.525Z,11.00
2018-09-30T18:40:41.361Z,10.80
2018-09-30T18:43:10.847Z,10.80
2018-09-30T18:45:40.576Z,10.70
2018-09-30T18:48:11.721Z,10.70
2018-09-30T18:50:43.688Z,10.60
2018-09-30T18:53:12.752Z,10.60
2018-09-30T18:55:42.763Z,10.40
2018-09-30T18:58:11.842Z,10.50
2018-09-30T19:00:40.917Z,10.40
2018-09-30T19:03:10.205Z,10.40
2018-09-30T19:05:39.222Z,10.30
2018-09-30T19:08:08.220Z,10.20
2018-09-30T19:10:37.232Z,10.20
2018-09-30T19:13:06.278Z,10.10
2018-09-30T19:15:35.317Z,10.10
2018-09-30T19:18:04.691Z,10.00
2018-09-30T19:20:36.616Z,10.00
2018-09-30T19:23:05.664Z,9.90
2018-09-30T19:25:34.711Z,9.80
2018-09-30T19:28:04.632Z,9.70
2018-09-30T19:30:33.774Z,9.60
2018-09-30T19:33:03.692Z,9.50
2018-09-30T19:35:32.736Z,9.50
2018-09-30T19:38:01.705Z,9.40
2018-09-30T19:40:30.697Z,9.40
2018-09-30T19:42:59.681Z,9.30
2018-09-30T19:45:28.728Z,9.30
2018-09-30T19:47:57.769Z,9.20
2018-09-30T19:50:26.774Z,9.20
2018-09-30T19:52:55.776Z,9.10
2018-09-30T19:55:24.796Z,9.10
2018-09-30T19:57:53.792Z,9.00
2018-09-30T20:00:22.841Z,9.00
2018-09-30T20:02:51.969Z,9.00
2018-09-30T20:05:21.018Z,8.90
2018-09-30T20:07:50.035Z,8.90
2018-09-30T20:10:19.117Z,8.90
2018-09-30T20:12:48.760Z,8.90
2018-09-30T20:15:17.708Z,8.80
2018-09-30T20:17:46.680Z,8.80
2018-09-30T20:20:15.692Z,8.80
2018-09-30T20:22:44.644Z,8.80
2018-09-30T20:25:13.596Z,8.80
2018-09-30T20:27:42.600Z,8.80
2018-09-30T20:30:11.644Z,8.80
2018-09-30T20:32:40.632Z,8.80
2018-09-30T20:35:09.685Z,8.70
2018-09-30T20:37:39.112Z,8.70
2018-09-30T20:40:08.156Z,8.60
2018-09-30T20:42:37.185Z,8.60
2018-09-30T20:45:06.225Z,8.70
2018-09-30T20:47:35.417Z,8.70
2018-09-30T20:50:04.460Z,8.60
2018-09-30T20:52:33.436Z,8.70
2018-09-30T20:55:02.471Z,8.60
2018-09-30T20:57:31.444Z,8.60
2018-09-30T21:00:01.392Z,8.50
2018-09-30T21:02:30.380Z,8.50
2018-09-30T21:05:01.179Z,8.50
2018-09-30T21:07:30.084Z,8.50
2018-09-30T21:09:59.069Z,8.50
2018-09-30T21:12:28.048Z,8.40
2018-09-30T21:14:57.067Z,8.40
2018-09-30T21:17:26.064Z,8.30
2018-09-30T21:19:55.001Z,8.30
2018-09-30T21:22:23.968Z,8.20
2018-09-30T21:24:52.920Z,8.30
2018-09-30T21:27:21.992Z,8.20
2018-09-30T21:29:50.967Z,8.10
2018-09-30T21:32:19.942Z,8.20
2018-09-30T21:34:48.932Z,8.10
2018-09-30T21:37:18.052Z,8.10
2018-09-30T21:39:47.056Z,8.00
2018-09-30T21:42:16.064Z,8.00
2018-09-30T21:44:45.308Z,7.90
2018-09-30T21:47:14.297Z,7.90
2018-09-30T21:49:43.293Z,7.90
2018-09-30T21:52:13.101Z,7.90
2018-09-30T21:54:42.224Z,7.70
2018-09-30T21:57:11.370Z,7.60
2018-09-30T21:59:41.401Z,7.50
2018-09-30T22:02:10.428Z,7.40
2018-09-30T22:04:39.464Z,7.40
2018-09-30T22:07:08.465Z,7.40
2018-09-30T22:09:37.478Z,7.40
2018-09-30T22:12:06.532Z,7.40
2018-09-30T22:14:35.515Z,7.30
2018-09-30T22:17:04.580Z,7.20
2018-09-30T22:19:33.621Z,7.20
2018-09-30T22:22:02.576Z,7.20
2018-09-30T22:24:31.544Z,7.20
2018-09-30T22:27:00.660Z,7.30
2018-09-30T22:29:29.652Z,7.30
2018-09-30T22:31:58.622Z,7.20
2018-09-30T22:34:27.616Z,7.20
2018-09-30T22:36:56.628Z,7.20
2018-09-30T22:39:25.700Z,7.20
2018-09-30T22:41:54.628Z,7.10
2018-09-30T22:44:23.571Z,7.00
2018-09-30T22:46:52.551Z,7.00
2018-09-30T22:49:21.543Z,7.00
2018-09-30T22:51:50.623Z,6.90
2018-09-30T22:54:19.616Z,6.90
2018-09-30T22:56:48.620Z,6.90
2018-09-30T22:59:17.632Z,6.90
2018-09-30T23:01:46.679Z,6.80
2018-09-30T23:04:15.731Z,6.80
2018-09-30T23:06:44.793Z,6.80
2018-09-30T23:09:13.844Z,6.80
2018-09-30T23:11:42.852Z,6.80
2018-09-30T23:14:11.928Z,6.70
2018-09-30T23:16:40.957Z,6.70
2018-09-30T23:19:10.316Z,6.70
2018-09-30T23:21:39.845Z,6.70
2018-09-30T23:24:08.840Z,6.60
2018-09-30T23:26:37.773Z,6.60
2018-09-30T23:29:06.900Z,6.60
2018-09-30T23:31:35.972Z,6.60
2018-09-30T23:34:05.104Z,6.60
2018-09-30T23:36:34.133Z,6.60
2018-09-30T23:39:03.228Z,6.60
2018-09-30T23:41:32.284Z,6.60
2018-09-30T23:44:01.264Z,6.60
2018-09-30T23:46:30.220Z,6.50
2018-09-30T23:48:59.204Z,6.40
2018-09-30T23:51:28.228Z,6.40
2018-09-30T23:53:57.264Z,6.40
2018-09-30T23:56:26.325Z,6.40
2018-09-30T23:58:55.289Z,6.30
